Time;durP1;ratioP1;P1;durP2;ratioP2;P2;SDS_P1;SDS_P2;PMS_P1;PMS_P2;Temp;Humidity;BMP_temperature;BMP_pressure;BME280_temperature;BME280_humidity;BME280_pressure;Samples;Min_cycle;Max_cycle;Signal;HPM_P1;HPM_P2
2023/05/22 00:02:27;;;;;;;31.38;24.73;;;;;;;17.97;100.00;101324.41;5071242;28;21755;-61
2023/05/22 00:04:59;;;;;;;29.27;24.88;;;;;;;17.98;100.00;101323.44;5076135;28;20094;-61
2023/05/22 00:07:27;;;;;;;32.13;23.88;;;;;;;18.01;100.00;101326.69;5074057;28;20118;-61
2023/05/22 00:09:56;;;;;;;31.70;23.23;;;;;;;18.09;100.00;101325.97;5076883;28;20056;-61
2023/05/22 00:12:24;;;;;;;30.30;24.42;;;;;;;18.06;100.00;101320.94;5070713;28;20376;-61
2023/05/22 00:14:55;;;;;;;30.08;23.30;;;;;;;18.12;100.00;101330.19;5067781;28;20495;-61
2023/05/22 00:17:25;;;;;;;30.17;23.67;;;;;;;18.10;100.00;101329.50;5068811;28;20539;-61
2023/05/22 00:19:55;;;;;;;31.17;23.92;;;;;;;18.13;100.00;101331.88;5069306;28;20044;-62
2023/05/22 00:22:23;;;;;;;29.90;24.05;;;;;;;18.15;100.00;101329.94;5069232;28;20051;-61
2023/05/22 00:24:51;;;;;;;29.90;24.25;;;;;;;18.20;100.00;101327.66;5068900;28;20048;-61
2023/05/22 00:27:20;;;;;;;29.20;23.55;;;;;;;18.19;100.00;101324.19;5069370;28;20066;-62
2023/05/22 00:29:48;;;;;;;31.55;23.80;;;;;;;18.14;100.00;101321.09;5051708;28;20047;-62
2023/05/22 00:32:17;;;;;;;30.35;24.05;;;;;;;18.10;100.00;101316.19;5068606;28;20156;-60
2023/05/22 00:34:47;;;;;;;31.55;25.63;;;;;;;18.06;100.00;101310.28;5068402;28;20040;-61
2023/05/22 00:37:16;;;;;;;32.03;24.80;;;;;;;17.95;100.00;101307.75;5068819;28;20051;-61
2023/05/22 00:39:44;;;;;;;32.45;24.67;;;;;;;17.81;100.00;101300.97;5068694;28;20052;-62
2023/05/22 00:42:12;;;;;;;32.35;24.92;;;;;;;17.81;100.00;101293.00;5069511;28;20127;-61
2023/05/22 00:44:41;;;;;;;33.67;25.30;;;;;;;17.79;100.00;101289.63;5066951;28;20062;-61
2023/05/22 00:47:10;;;;;;;34.55;26.08;;;;;;;17.79;100.00;101289.63;5069206;28;20048;-61
2023/05/22 00:49:39;;;;;;;32.65;25.58;;;;;;;17.74;100.00;101295.34;5070998;28;20097;-62
2023/05/22 00:52:08;;;;;;;33.42;24.98;;;;;;;17.82;100.00;101292.00;5077039;28;20482;-61
2023/05/22 00:54:37;;;;;;;32.85;25.33;;;;;;;17.76;100.00;101295.22;5075809;28;20040;-61
2023/05/22 00:57:06;;;;;;;31.25;24.90;;;;;;;17.79;100.00;101297.59;5075856;28;20681;-61
2023/05/22 00:59:35;;;;;;;36.70;24.88;;;;;;;17.77;100.00;101296.91;5056339;28;20131;-61
2023/05/22 01:02:04;;;;;;;34.80;25.08;;;;;;;17.79;100.00;101286.94;5075528;28;20414;-61
2023/05/22 01:04:32;;;;;;;31.80;24.60;;;;;;;17.77;100.00;101288.94;5076007;28;20045;-62
2023/05/22 01:07:01;;;;;;;31.40;23.92;;;;;;;17.70;100.00;101284.13;5064444;28;20059;-61
2023/05/22 01:09:30;;;;;;;31.15;23.15;;;;;;;17.73;100.00;101278.53;5060670;28;20075;-61
2023/05/22 01:12:08;;;;;;;32.25;24.10;;;;;;;17.68;100.00;101279.94;5079837;28;20441;-61
2023/05/22 01:14:43;;;;;;;30.25;23.02;;;;;;;17.71;100.00;101271.66;5081691;28;20036;-61
2023/05/22 01:17:21;;;;;;;30.50;21.73;;;;;;;17.70;100.00;101270.00;5084668;28;20075;-61
2023/05/22 01:20:05;;;;;;;29.23;21.90;;;;;;;17.67;100.00;101268.47;5081712;28;20067;-61
2023/05/22 01:23:19;;;;;;;29.85;22.73;;;;;;;17.60;100.00;101266.47;5077012;28;20052;-61
2023/05/22 01:26:12;;;;;;;32.85;23.35;;;;;;;17.67;100.00;101268.47;5075416;28;20071;-61
2023/05/22 01:29:13;;;;;;;31.15;23.52;;;;;;;17.57;100.00;101262.25;5074470;28;20051;-61
2023/05/22 01:31:45;;;;;;;28.92;23.73;;;;;;;17.53;100.00;101260.84;5078673;28;20387;-61
2023/05/22 01:34:16;;;;;;;34.15;24.20;;;;;;;17.56;100.00;101263.22;5075912;28;20124;-60
2023/05/22 01:36:46;;;;;;;29.35;22.30;;;;;;;17.52;100.00;101261.81;5080143;28;20498;-61
2023/05/22 01:39:15;;;;;;;30.85;23.60;;;;;;;17.55;100.00;101267.72;5076605;28;20040;-60
2023/05/22 01:41:44;;;;;;;30.38;22.92;;;;;;;17.57;100.00;101273.75;5077636;28;20229;-60
2023/05/22 01:44:12;;;;;;;26.80;21.88;;;;;;;17.56;100.00;101269.41;5059777;28;20047;-61
2023/05/22 01:46:42;;;;;;;30.67;23.88;;;;;;;17.49;100.00;101270.06;5050688;28;20053;-61
2023/05/22 01:49:10;;;;;;;30.98;23.30;;;;;;;17.42;100.00;101268.94;5058511;28;20032;-60
2023/05/22 01:51:45;;;;;;;30.90;23.20;;;;;;;17.33;100.00;101266.09;5074601;28;20149;-61
2023/05/22 01:54:18;;;;;;;30.40;22.73;;;;;;;17.26;100.00;101264.97;5078150;28;20155;-61
2023/05/22 01:56:51;;;;;;;30.48;22.55;;;;;;;17.27;100.00;101263.97;5078276;28;20068;-60
2023/05/22 01:59:26;;;;;;;30.42;23.17;;;;;;;17.27;100.00;101266.63;5062255;28;20093;-61
2023/05/22 02:02:03;;;;;;;27.80;21.58;;;;;;;17.26;100.00;101267.63;5080894;28;20499;-60
2023/05/22 02:04:32;;;;;;;27.45;22.38;;;;;;;17.24;100.00;101266.91;5071458;28;20049;-60
2023/05/22 02:07:02;;;;;;;28.05;22.17;;;;;;;17.22;100.00;101274.19;5073299;28;20044;-60
2023/05/22 02:09:31;;;;;;;29.38;21.48;;;;;;;17.13;100.00;101264.34;5074158;28;20415;-61
2023/05/22 02:12:00;;;;;;;32.38;22.67;;;;;;;17.13;100.00;101261.69;5079640;28;20049;-61
2023/05/22 02:14:29;;;;;;;30.70;22.48;;;;;;;17.15;100.00;101257.06;5081046;28;20054;-61
2023/05/22 02:17:00;;;;;;;27.20;20.50;;;;;;;17.17;100.00;101266.59;5081540;28;20086;-61
2023/05/22 02:19:34;;;;;;;26.85;20.92;;;;;;;17.21;100.00;101259.19;5079988;28;20074;-54
2023/05/22 02:22:02;;;;;;;25.60;20.20;;;;;;;17.20;100.00;101261.00;5078467;28;20538;-52
2023/05/22 02:24:31;;;;;;;26.42;20.40;;;;;;;17.16;100.00;101256.09;5077750;28;20582;-53
2023/05/22 02:27:00;;;;;;;28.85;20.75;;;;;;;17.12;100.00;101260.81;5057961;28;20047;-52
2023/05/22 02:29:28;;;;;;;29.13;21.45;;;;;;;17.10;100.00;101248.63;5074085;28;20036;-53
2023/05/22 02:32:00;;;;;;;28.73;21.10;;;;;;;16.99;100.00;101244.28;5062298;28;20511;-52
2023/05/22 02:34:31;;;;;;;28.58;21.08;;;;;;;16.98;100.00;101245.25;5074944;28;20629;-52
2023/05/22 02:37:02;;;;;;;30.63;21.67;;;;;;;16.99;100.00;101247.78;5077155;28;20687;-52
2023/05/22 02:39:30;;;;;;;26.80;19.70;;;;;;;17.01;100.00;101252.94;5073076;28;20044;-53
2023/05/22 02:41:58;;;;;;;27.88;21.08;;;;;;;16.97;100.00;101248.88;5077506;28;20045;-52
2023/05/22 02:44:26;;;;;;;29.02;20.92;;;;;;;16.96;100.00;101245.38;5075111;28;20376;-52
2023/05/22 02:46:54;;;;;;;29.15;21.33;;;;;;;16.94;100.00;101241.19;5071194;28;20044;-52
2023/05/22 02:49:24;;;;;;;28.25;21.08;;;;;;;16.93;100.00;101240.31;5072569;28;20044;-52
2023/05/22 02:51:52;;;;;;;29.17;20.90;;;;;;;16.87;100.00;101228.38;5073279;28;20059;-52
2023/05/22 02:54:20;;;;;;;25.60;20.02;;;;;;;16.70;100.00;101232.50;5072590;28;20048;-52
2023/05/22 02:56:48;;;;;;;28.70;21.40;;;;;;;16.71;100.00;101228.88;5075502;28;20048;-53
2023/05/22 02:59:17;;;;;;;24.88;19.92;;;;;;;16.68;100.00;101222.97;5075703;28;20052;-52
2023/05/22 03:01:47;;;;;;;28.50;20.63;;;;;;;16.67;100.00;101224.75;5074038;28;20048;-52
2023/05/22 03:04:15;;;;;;;26.08;19.75;;;;;;;16.65;100.00;101220.56;5077796;28;20178;-51
2023/05/22 03:06:45;;;;;;;27.27;20.08;;;;;;;16.66;100.00;101236.38;5079598;28;20052;-51
2023/05/22 03:09:13;;;;;;;27.00;20.13;;;;;;;16.50;100.00;101230.69;5080841;28;20036;-51
2023/05/22 03:11:41;;;;;;;27.15;19.38;;;;;;;16.38;100.00;101232.53;5076958;28;20051;-61
2023/05/22 03:14:09;;;;;;;28.08;20.02;;;;;;;16.34;100.00;101223.97;5073096;28;20684;-61
2023/05/22 03:16:37;;;;;;;27.45;19.95;;;;;;;16.33;100.00;101229.41;5079309;28;20120;-61
2023/05/22 03:19:10;;;;;;;26.67;19.52;;;;;;;16.35;100.00;101225.69;5058114;28;20045;-61
2023/05/22 03:21:39;;;;;;;24.83;19.27;;;;;;;16.34;100.00;101228.47;5077726;28;20156;-61
2023/05/22 03:24:09;;;;;;;25.20;19.48;;;;;;;16.30;100.00;101227.88;5078627;28;20047;-48
2023/05/22 03:26:38;;;;;;;25.42;19.35;;;;;;;16.28;100.00;101228.97;5077170;28;20582;-50
2023/05/22 03:29:06;;;;;;;24.13;19.02;;;;;;;16.24;100.00;101225.75;5061103;28;20047;-49
2023/05/22 03:31:35;;;;;;;26.85;19.55;;;;;;;16.15;100.00;101214.06;5073834;28;20093;-47
2023/05/22 03:34:04;;;;;;;26.25;20.20;;;;;;;16.19;100.00;101217.31;5081368;28;20043;-54
2023/05/22 03:36:33;;;;;;;25.70;20.20;;;;;;;16.19;100.00;101217.31;5080359;28;20487;-51
2023/05/22 03:39:02;;;;;;;26.55;18.55;;;;;;;16.23;100.00;101224.88;5087533;28;20117;-53
2023/05/22 03:41:31;;;;;;;24.73;19.65;;;;;;;16.11;100.00;101227.72;5069142;28;20102;-52
2023/05/22 03:44:00;;;;;;;24.02;18.35;;;;;;;16.02;100.00;101218.69;5069708;28;20048;-54
2023/05/22 03:46:28;;;;;;;27.08;19.10;;;;;;;15.93;100.00;101227.44;5075945;28;20044;-61
2023/05/22 03:48:56;;;;;;;25.55;19.38;;;;;;;15.89;100.00;101221.53;5074130;28;20048;-61
2023/05/22 03:51:24;;;;;;;27.02;19.67;;;;;;;15.92;100.00;101223.91;5074754;28;20044;-61
2023/05/22 03:53:52;;;;;;;27.80;20.33;;;;;;;15.88;100.00;101225.13;5056014;28;20426;-59
2023/05/22 03:56:21;;;;;;;27.63;19.65;;;;;;;15.92;100.00;101221.25;5080469;28;20395;-60
2023/05/22 03:58:50;;;;;;;27.25;19.55;;;;;;;15.89;100.00;101216.22;5075542;28;20499;-61
2023/05/22 04:01:18;;;;;;;25.85;20.90;;;;;;;15.89;100.00;101216.22;5070705;28;20036;-60
2023/05/22 04:03:46;;;;;;;26.20;21.88;;;;;;;15.74;100.00;101214.78;5069961;28;20058;-60
2023/05/22 04:06:15;;;;;;;28.02;20.98;;;;;;;15.74;100.00;101220.94;5072960;28;20074;-60
2023/05/22 04:08:43;;;;;;;26.30;19.80;;;;;;;15.79;100.00;101208.16;5075447;28;20059;-49
2023/05/22 04:11:14;;;;;;;25.63;19.67;;;;;;;15.80;100.00;101219.63;5073665;28;20056;-52
2023/05/22 04:13:42;;;;;;;28.05;20.63;;;;;;;15.78;100.00;101222.38;5077337;28;20120;-52
2023/05/22 04:16:12;;;;;;;25.10;20.60;;;;;;;15.77;100.00;101225.97;5076628;28;20502;-54
2023/05/22 04:18:40;;;;;;;26.02;19.92;;;;;;;15.78;100.00;101226.84;5074884;28;20044;-52
2023/05/22 04:21:08;;;;;;;29.52;20.45;;;;;;;15.76;100.00;101226.97;5077161;28;20100;-53
2023/05/22 04:23:37;;;;;;;27.77;21.05;;;;;;;15.71;100.00;101227.31;5076769;28;20098;-51
2023/05/22 04:26:07;;;;;;;29.38;22.02;;;;;;;15.67;100.00;101230.34;5070153;28;20434;-61
2023/05/22 04:28:36;;;;;;;26.20;20.45;;;;;;;15.69;100.00;101231.91;5076643;28;20052;-61
2023/05/22 04:31:06;;;;;;;26.88;20.38;;;;;;;15.70;100.00;101238.06;5073364;28;20043;-60
2023/05/22 04:33:39;;;;;;;26.67;20.63;;;;;;;15.71;100.00;101231.78;5076066;28;20055;-61
2023/05/22 04:36:09;;;;;;;28.77;22.10;;;;;;;15.69;100.00;101221.31;5076176;28;20106;-60
2023/05/22 04:38:40;;;;;;;28.38;22.30;;;;;;;15.74;100.00;101222.75;5081712;28;20127;-60
2023/05/22 04:41:12;;;;;;;30.42;21.70;;;;;;;15.70;100.00;101225.63;5082744;28;20399;-61
2023/05/22 04:43:40;;;;;;;28.35;20.35;;;;;;;15.67;100.00;101228.53;5060719;28;20055;-60
2023/05/22 04:46:08;;;;;;;29.30;22.38;;;;;;;15.63;100.00;101228.91;5082655;28;20044;-60
2023/05/22 04:48:39;;;;;;;27.45;20.95;;;;;;;15.66;100.00;101229.50;5076654;28;20585;-60
2023/05/22 04:51:07;;;;;;;28.55;21.58;;;;;;;15.66;100.00;101232.16;5078629;28;20483;-60
2023/05/22 04:53:37;;;;;;;27.15;21.98;;;;;;;15.66;100.00;101228.66;5079406;28;20048;-60
2023/05/22 04:56:06;;;;;;;29.08;22.70;;;;;;;15.68;100.00;101230.22;5062989;28;20048;-60
2023/05/22 04:58:36;;;;;;;29.48;22.30;;;;;;;15.69;100.00;101225.75;5077877;28;20060;-60
2023/05/22 05:01:04;;;;;;;27.05;21.58;;;;;;;15.67;100.00;101231.19;5076677;28;20036;-60
2023/05/22 05:03:34;;;;;;;28.58;21.17;;;;;;;15.69;100.00;101228.41;5075728;28;20052;-60
2023/05/22 05:06:07;;;;;;;27.17;21.55;;;;;;;15.70;100.00;101228.28;5078713;28;20495;-59
2023/05/22 05:08:35;;;;;;;29.10;22.02;;;;;;;15.75;100.00;101230.56;5081766;28;20044;-60
2023/05/22 05:11:03;;;;;;;29.27;21.85;;;;;;;15.78;100.00;101240.09;5076725;28;20043;-60
2023/05/22 05:13:31;;;;;;;30.30;22.13;;;;;;;15.80;100.00;101236.38;5077665;28;20056;-60
2023/05/22 05:16:00;;;;;;;27.98;22.40;;;;;;;15.75;100.00;101235.03;5079711;28;20106;-60
2023/05/22 05:18:28;;;;;;;28.35;22.75;;;;;;;15.80;100.00;101244.34;5077547;28;20040;-61
2023/05/22 05:20:56;;;;;;;31.05;21.85;;;;;;;15.85;100.00;101238.66;5077039;28;20044;-61
2023/05/22 05:23:29;;;;;;;31.35;23.65;;;;;;;15.89;100.00;101242.75;5076530;28;20033;-61
2023/05/22 05:25:57;;;;;;;29.25;21.90;;;;;;;15.93;100.00;101246.00;5078377;28;20037;-61
2023/05/22 05:28:25;;;;;;;31.98;24.17;;;;;;;15.96;100.00;101246.56;5078219;28;20437;-61
2023/05/22 05:30:53;;;;;;;32.22;24.67;;;;;;;15.97;100.00;101250.91;5077908;28;20117;-61
2023/05/22 05:33:21;;;;;;;30.33;23.73;;;;;;;15.97;100.00;101248.25;5075331;28;20047;-52
2023/05/22 05:35:52;;;;;;;30.05;24.42;;;;;;;16.00;100.00;101245.34;5080136;28;20386;-53
2023/05/22 05:38:20;;;;;;;27.27;23.40;;;;;;;16.06;100.00;101249.34;5076724;28;20564;-52
2023/05/22 05:40:50;;;;;;;25.38;22.67;;;;;;;16.04;100.00;101252.09;5076043;28;20158;-53
2023/05/22 05:43:19;;;;;;;21.85;19.55;;;;;;;16.04;100.00;101244.13;5080842;28;20046;-52
2023/05/22 05:45:47;;;;;;;22.80;20.30;;;;;;;16.14;100.00;101240.72;5074979;28;20044;-51
2023/05/22 05:48:15;;;;;;;22.80;19.63;;;;;;;16.21;100.00;101252.50;5080572;28;20427;-52
2023/05/22 05:50:43;;;;;;;22.27;19.20;;;;;;;16.28;100.00;101253.72;5079973;28;20028;-51
2023/05/22 05:53:11;;;;;;;21.52;19.33;;;;;;;16.26;100.00;101255.63;5074784;28;20040;-53
2023/05/22 05:55:40;;;;;;;22.25;19.83;;;;;;;16.30;100.00;101254.41;5077680;28;20040;-51
2023/05/22 05:58:09;;;;;;;22.67;20.08;;;;;;;16.33;100.00;101259.47;5076088;28;20052;-51
2023/05/22 06:00:37;;;;;;;21.73;19.10;;;;;;;16.37;100.00;101265.34;5051895;28;21232;-53
2023/05/22 06:03:06;;;;;;;21.73;19.08;;;;;;;16.30;100.00;101269.50;5074217;28;20048;-52
2023/05/22 06:05:34;;;;;;;21.08;18.73;;;;;;;16.43;100.00;101270.16;5071239;28;20098;-55
2023/05/22 06:08:03;;;;;;;21.98;18.85;;;;;;;16.51;100.00;101272.16;5053370;28;20468;-52
2023/05/22 06:10:31;;;;;;;22.08;18.80;;;;;;;16.51;100.00;101275.69;5070352;28;20067;-51
2023/05/22 06:12:59;;;;;;;20.05;17.98;;;;;;;16.50;100.00;101270.50;5054889;28;20139;-51
2023/05/22 06:15:30;;;;;;;23.13;19.48;;;;;;;16.63;100.00;101275.59;5074201;28;20037;-53
2023/05/22 06:17:58;;;;;;;20.58;18.40;;;;;;;16.68;100.00;101276.91;5074213;28;20767;-52
2023/05/22 06:20:26;;;;;;;22.83;20.02;;;;;;;16.71;100.00;101275.81;5078844;28;20117;-52
2023/05/22 06:22:57;;;;;;;22.50;19.85;;;;;;;16.72;100.00;101274.84;5079522;28;20035;-53
2023/05/22 06:25:28;;;;;;;22.90;19.38;;;;;;;16.81;100.00;101279.38;5072159;28;20053;-53
2023/05/22 06:27:56;;;;;;;22.45;19.75;;;;;;;16.94;100.00;101278.38;5072367;28;20037;-53
2023/05/22 06:30:25;;;;;;;25.55;20.10;;;;;;;16.90;100.00;101289.22;5075844;28;20052;-54
2023/05/22 06:33:08;;;;;;;22.60;19.85;;;;;;;16.98;100.00;101282.44;5051266;28;20148;-55
2023/05/22 06:35:37;;;;;;;22.38;19.95;;;;;;;17.15;100.00;101286.28;5070031;28;20052;-54
2023/05/22 06:38:05;;;;;;;24.83;19.70;;;;;;;17.35;100.00;101288.06;5051290;28;20049;-53
2023/05/22 06:40:33;;;;;;;24.63;20.23;;;;;;;17.42;100.00;101284.88;5056889;28;20059;-54
2023/05/22 06:43:01;;;;;;;22.60;20.20;;;;;;;17.52;100.00;101288.41;5071610;28;20054;-54
2023/05/22 06:45:33;;;;;;;22.05;19.20;;;;;;;17.64;100.00;101294.47;5056721;28;20059;-53
2023/05/22 06:48:01;;;;;;;22.27;19.85;;;;;;;17.79;100.00;101297.59;5056851;28;20227;-52
2023/05/22 06:50:31;;;;;;;21.67;19.10;;;;;;;17.93;100.00;101299.91;5058865;28;20035;-50
2023/05/22 06:52:59;;;;;;;21.45;18.33;;;;;;;18.05;100.00;101304.13;5080026;28;20047;-54
2023/05/22 06:55:30;;;;;;;21.80;19.30;;;;;;;18.20;100.00;101291.25;5069682;28;20402;-54
2023/05/22 06:57:58;;;;;;;23.95;20.75;;;;;;;18.33;100.00;101298.97;5072659;28;20072;-54
2023/05/22 07:00:26;;;;;;;22.52;19.88;;;;;;;18.40;100.00;101305.41;5072664;28;20072;-55
2023/05/22 07:02:55;;;;;;;24.13;19.85;;;;;;;18.52;100.00;101300.78;5073279;28;20507;-62
2023/05/22 07:05:23;;;;;;;22.42;18.75;;;;;;;18.68;100.00;101299.34;5069314;28;20561;-61
2023/05/22 07:07:53;;;;;;;21.23;18.55;;;;;;;18.83;100.00;101302.41;5077311;28;20043;-62
2023/05/22 07:10:21;;;;;;;21.92;19.60;;;;;;;18.94;100.00;101304.13;5073080;28;20044;-62
2023/05/22 07:12:49;;;;;;;22.70;19.40;;;;;;;18.95;100.00;101304.00;5072917;28;20029;-63
2023/05/22 07:15:17;;;;;;;22.10;18.13;;;;;;;19.10;100.00;101301.69;5070868;28;20047;-63
2023/05/22 07:17:45;;;;;;;21.73;17.80;;;;;;;19.28;100.00;101304.47;5080333;28;20475;-62
2023/05/22 07:20:15;;;;;;;21.67;18.55;;;;;;;19.42;100.00;101303.13;5073485;28;20548;-61
2023/05/22 07:22:45;;;;;;;20.53;18.33;;;;;;;19.57;100.00;101307.00;5074713;28;20029;-62
2023/05/22 07:25:15;;;;;;;21.58;18.20;;;;;;;19.76;100.00;101307.88;5081304;28;20835;-62
2023/05/22 07:27:43;;;;;;;22.95;19.00;;;;;;;19.91;100.00;101311.75;5072081;28;20041;-61
2023/05/22 07:30:12;;;;;;;21.05;18.02;;;;;;;20.04;100.00;101308.72;5055318;28;20057;-62
2023/05/22 07:32:41;;;;;;;21.17;17.85;;;;;;;20.17;100.00;101307.53;5056863;28;20045;-62
2023/05/22 07:35:10;;;;;;;22.90;18.40;;;;;;;20.33;100.00;101313.03;5076076;28;20041;-62
2023/05/22 07:37:38;;;;;;;20.95;17.70;;;;;;;20.46;100.00;101312.63;5079746;28;20447;-63
2023/05/22 07:40:08;;;;;;;20.65;18.08;;;;;;;20.41;100.00;101307.75;5057014;28;20049;-63
2023/05/22 07:42:38;;;;;;;20.45;17.45;;;;;;;20.65;100.00;101311.59;5078793;28;20073;-63
2023/05/22 07:45:07;;;;;;;20.30;17.23;;;;;;;20.87;100.00;101314.81;5073054;28;20499;-64
2023/05/22 07:47:35;;;;;;;22.73;17.45;;;;;;;21.07;100.00;101321.63;5067153;28;20476;-62
2023/05/22 07:50:04;;;;;;;18.73;14.98;;;;;;;21.36;100.00;101316.94;5072751;28;20036;-57
2023/05/22 07:52:32;;;;;;;19.65;16.42;;;;;;;21.41;100.00;101318.13;5073281;28;20123;-57
2023/05/22 07:55:00;;;;;;;20.40;16.63;;;;;;;21.64;100.00;101322.97;5075949;28;20396;-58
2023/05/22 07:57:29;;;;;;;18.90;15.68;;;;;;;21.88;100.00;101318.69;5074711;28;20044;-58
2023/05/22 07:59:59;;;;;;;16.90;14.32;;;;;;;22.20;100.00;101325.13;5072499;28;20036;-58
2023/05/22 08:02:27;;;;;;;18.17;15.70;;;;;;;22.34;100.00;101331.69;5056045;28;20047;-64
2023/05/22 08:04:55;;;;;;;19.70;16.17;;;;;;;22.49;100.00;101329.22;5074646;28;20043;-64
2023/05/22 08:07:24;;;;;;;18.67;16.38;;;;;;;22.63;100.00;101328.53;5074691;28;20116;-64
2023/05/22 08:09:52;;;;;;;19.92;16.10;;;;;;;22.58;100.00;101331.72;5073480;28;20122;-64
2023/05/22 08:12:20;;;;;;;19.55;15.88;;;;;;;22.54;100.00;101335.75;5071907;28;20040;-64
2023/05/22 08:14:48;;;;;;;18.10;16.20;;;;;;;22.82;100.00;101334.56;5069956;28;20044;-64
2023/05/22 08:17:18;;;;;;;16.73;14.50;;;;;;;23.03;100.00;101334.88;5070301;28;20059;-65
2023/05/22 08:19:46;;;;;;;17.30;14.85;;;;;;;23.29;100.00;101334.66;5068022;28;20044;-58
2023/05/22 08:22:14;;;;;;;18.25;15.30;;;;;;;23.44;100.00;101328.59;5057843;28;20044;-57
2023/05/22 08:24:45;;;;;;;18.33;14.80;;;;;;;23.55;100.00;101327.38;5072742;28;20039;-58
2023/05/22 08:27:16;;;;;;;22.13;15.05;;;;;;;23.37;100.00;101333.81;5078010;28;20028;-57
2023/05/22 08:29:45;;;;;;;18.90;15.57;;;;;;;23.53;100.00;101324.03;5065807;28;20054;-57
2023/05/22 08:32:13;;;;;;;17.23;14.52;;;;;;;23.84;100.00;101324.03;5077459;28;20048;-58
2023/05/22 08:34:44;;;;;;;16.77;14.57;;;;;;;23.92;100.00;101315.16;5067765;28;20049;-57
2023/05/22 08:37:15;;;;;;;16.98;15.18;;;;;;;24.16;100.00;101308.78;5073902;28;20032;-56
2023/05/22 08:39:43;;;;;;;18.00;15.25;;;;;;;24.35;100.00;101312.84;5077540;28;20666;-57
2023/05/22 08:42:12;;;;;;;17.42;14.93;;;;;;;24.45;100.00;101313.44;5074500;28;20043;-63
2023/05/22 08:44:40;;;;;;;16.70;14.55;;;;;;;24.51;100.00;101308.34;5067998;28;20123;-63
2023/05/22 08:47:09;;;;;;;17.08;13.60;;;;;;;24.78;100.00;101315.03;5088682;28;20090;-64
2023/05/22 08:49:39;;;;;;;17.75;14.63;;;;;;;25.04;100.00;101305.69;5092449;28;20043;-65
2023/05/22 08:52:13;;;;;;;16.85;13.45;;;;;;;25.33;100.00;101304.03;5081969;28;20040;-63
2023/05/22 08:54:43;;;;;;;15.68;13.50;;;;;;;25.67;100.00;101306.13;5058971;28;20049;-65
2023/05/22 08:57:14;;;;;;;17.20;14.30;;;;;;;25.29;100.00;101307.09;5057568;28;20093;-65
2023/05/22 08:59:45;;;;;;;16.67;14.95;;;;;;;25.28;100.00;101304.59;5064912;28;20063;-65
2023/05/22 09:02:14;;;;;;;16.48;14.75;;;;;;;25.23;100.00;101304.31;5092894;28;20375;-65
2023/05/22 09:04:44;;;;;;;14.70;12.55;;;;;;;25.55;100.00;101299.56;5065803;28;20057;-65
2023/05/22 09:07:14;;;;;;;13.32;11.52;;;;;;;25.84;100.00;101303.22;5091091;28;20540;-64
2023/05/22 09:09:42;;;;;;;14.82;12.35;;;;;;;26.25;100.00;101299.97;5080278;28;20123;-63
2023/05/22 09:12:10;;;;;;;14.27;10.48;;;;;;;26.32;100.00;101292.75;5055915;28;20542;-64
2023/05/22 09:14:39;;;;;;;13.77;10.60;;;;;;;26.59;100.00;101293.81;5071673;28;20150;-65
2023/05/22 09:17:08;;;;;;;13.57;10.18;;;;;;;26.78;100.00;101302.31;5071350;28;20067;-64
2023/05/22 09:19:37;;;;;;;14.02;10.48;;;;;;;26.84;100.00;101296.09;5058481;28;20035;-64
2023/05/22 09:22:06;;;;;;;12.63;9.65;;;;;;;27.18;100.00;101288.22;5073349;28;20466;-64
2023/05/22 09:24:42;;;;;;;12.05;9.48;;;;;;;27.36;100.00;101290.38;5078881;28;20043;-64
2023/05/22 09:27:11;;;;;;;11.40;9.60;;;;;;;27.25;100.00;101289.09;5083628;28;20044;-65
2023/05/22 09:29:57;;;;;;;11.38;9.00;;;;;;;27.46;100.00;101280.91;5093351;28;20051;-65
2023/05/22 09:32:30;;;;;;;10.95;9.35;;;;;;;27.65;100.00;101290.13;5080575;28;20044;-64
2023/05/22 09:35:03;;;;;;;12.73;9.98;;;;;;;27.81;100.00;101288.06;5072297;28;20320;-65
2023/05/22 09:37:34;;;;;;;12.15;10.15;;;;;;;27.92;100.00;101278.53;5071796;28;20495;-65
2023/05/22 09:40:06;;;;;;;13.05;9.95;;;;;;;28.02;100.00;101278.16;5074079;28;20422;-64
2023/05/22 09:42:34;;;;;;;13.85;9.13;;;;;;;27.91;100.00;101283.13;5054796;28;20048;-58
2023/05/22 09:45:08;;;;;;;11.65;8.80;;;;;;;27.82;99.27;101281.66;5070759;28;20064;-57
2023/05/22 09:47:36;;;;;;;12.60;9.25;;;;;;;27.74;99.68;101271.84;5071974;28;20048;-58
2023/05/22 09:50:08;;;;;;;11.23;8.95;;;;;;;27.39;100.00;101280.06;5072013;28;20068;-59
2023/05/22 09:52:37;;;;;;;;;;;;;;;27.73;100.00;101274.75;5072458;28;20072;-58
2023/05/22 09:55:09;;;;;;;11.05;8.75;;;;;;;28.09;100.00;101274.44;5053977;28;19970;-58
2023/05/22 09:57:43;;;;;;;12.15;9.63;;;;;;;27.93;100.00;101277.50;5071524;28;20057;-58
2023/05/22 10:00:17;;;;;;;12.57;9.27;;;;;;;28.25;100.00;101270.53;5070349;28;20083;-58
2023/05/22 10:02:50;;;;;;;11.05;9.23;;;;;;;28.41;93.98;101274.66;5071816;28;20480;-58
2023/05/22 10:05:21;;;;;;;12.43;8.85;;;;;;;28.65;94.57;101277.81;5071600;28;20044;-58
2023/05/22 10:07:50;;;;;;;11.90;8.52;;;;;;;28.90;82.34;101274.44;5071893;28;20049;-58
2023/05/22 10:10:24;;;;;;;11.02;8.90;;;;;;;28.59;83.08;101271.34;5071733;28;20384;-58
2023/05/22 10:12:56;;;;;;;11.70;8.77;;;;;;;28.50;82.46;101261.78;5072420;28;20051;-57
2023/05/22 10:15:25;;;;;;;11.60;9.27;;;;;;;28.67;80.09;101270.31;5070114;28;20491;-58
2023/05/22 10:17:57;;;;;;;11.98;8.80;;;;;;;28.89;81.53;101259.25;5071843;28;20547;-64
2023/05/22 10:20:26;;;;;;;12.45;10.02;;;;;;;28.59;77.85;101262.38;5071834;28;20166;-64
2023/05/22 10:22:56;;;;;;;12.85;9.20;;;;;;;28.72;78.56;101264.28;5072019;28;20514;-65
2023/05/22 10:25:26;;;;;;;12.20;9.65;;;;;;;28.71;79.94;101254.50;5071569;28;20496;-65
2023/05/22 10:27:55;;;;;;;12.25;9.20;;;;;;;28.78;78.02;101252.59;5072708;28;20049;-65
2023/05/22 10:30:32;;;;;;;11.80;9.32;;;;;;;28.42;78.92;101260.09;5070895;28;20102;-65
2023/05/22 10:33:07;;;;;;;12.75;9.50;;;;;;;28.23;82.20;101258.25;5054470;28;20048;-65
2023/05/22 10:35:41;;;;;;;14.25;10.65;;;;;;;28.75;85.16;101255.75;5070716;28;20079;-58
2023/05/22 10:38:40;;;;;;;13.68;11.18;;;;;;;28.87;78.28;101255.94;5071203;28;20124;-58
2023/05/22 10:41:10;;;;;;;12.75;9.57;;;;;;;29.18;78.40;101258.75;5071150;28;20365;-58
2023/05/22 10:43:40;;;;;;;13.10;10.63;;;;;;;29.30;77.56;101260.81;5070397;28;20135;-59
2023/05/22 10:46:11;;;;;;;11.43;10.07;;;;;;;29.09;73.32;101251.06;5070046;28;20033;-58
2023/05/22 10:48:40;;;;;;;11.90;10.13;;;;;;;29.15;74.33;101253.75;5070599;28;20412;-58
2023/05/22 10:51:09;;;;;;;12.50;10.73;;;;;;;28.86;78.19;101254.25;5070474;28;20048;-56
2023/05/22 10:53:37;;;;;;;11.60;9.55;;;;;;;28.84;78.38;101249.88;5070502;28;20052;-58
2023/05/22 10:56:11;;;;;;;11.90;9.98;;;;;;;28.84;79.62;101254.47;5070977;28;20589;-58
2023/05/22 10:58:43;;;;;;;11.48;9.45;;;;;;;29.02;76.78;101251.09;5070061;28;20056;-58
2023/05/22 11:01:13;;;;;;;12.05;10.77;;;;;;;29.27;74.16;101250.41;5069400;28;20044;-58
2023/05/22 11:03:58;;;;;;;13.13;10.77;;;;;;;29.28;71.85;101252.91;5071134;28;20119;-58
2023/05/22 11:06:37;;;;;;;11.73;9.73;;;;;;;29.54;72.39;101253.00;5070024;28;20066;-59
2023/05/22 11:09:27;;;;;;;12.68;10.48;;;;;;;29.72;69.48;101252.25;5052697;28;20059;-59
2023/05/22 11:12:25;;;;;;;12.95;10.82;;;;;;;29.92;70.25;101250.28;5070650;28;20502;-58
2023/05/22 11:14:55;;;;;;;14.15;11.75;;;;;;;30.13;69.72;101248.25;5052056;28;20144;-58
2023/05/22 11:17:25;;;;;;;11.82;10.57;;;;;;;30.45;69.32;101240.91;5052543;28;20064;-58
2023/05/22 11:20:01;;;;;;;11.85;9.55;;;;;;;30.60;71.29;101246.00;5070391;28;20068;-58